Preview of NWS' New Version of Forecast
This preview is not operational and should not be used for support decisions.

Terminal Aerodrome Forecast (TAF)

Issued by National Weather Service (NWS)

                            
000
FTUS42 KKEY 200540
TAFEYW
TAF
KEYW 200540Z 2006/2106 17013KT P6SM FEW020 SCT040 SCT060
     FM200800 22017G23KT P6SM VCSH SCT020 BKN040
      TEMPO 2008/2012 3SM SHRA BKN020
     FM201200 27018G26KT P6SM VCSH BKN020 BKN035
      TEMPO 2012/2015 3SM SHRA BKN015 OVC025=